<?xml version="1.0" encoding="UTF-8" standalone="no" ?>
<gpx xmlns="http://www.topografix.com/GPX/1/1" xmlns:xsi="http://www.w3.org/2001/XMLSchema-instance" xsi:schemaLocation="http://www.topografix.com/GPX/1/1 http://www.topografix.com/GPX/1/1/gpx.xsd" version="1.1" creator="VisuGPX - https://www.visugpx.com">
  <metadata>
    <name>Sainte Victoire </name>
    <desc><![CDATA[grp_trc:[nouvelles]]]></desc>
  </metadata>
  <trk>
    <name><![CDATA[20 juil. 2022 à 17:02:15]]></name>
    <cmt><![CDATA[20 juil. 2022 à 17:02:15]]></cmt>
    <trkseg>
      <trkpt lat="45.99446" lon="6.83289">
        <ele>1847</ele>
        <time>2022-07-20T15:02:16Z</time>
      </trkpt>
      <trkpt lat="45.99446" lon="6.83289">
        <ele>1847</ele>
        <time>2022-07-20T15:02:17Z</time>
      </trkpt>
      <trkpt lat="45.99444" lon="6.8328">
        <ele>1848</ele>
        <time>2022-07-20T15:02:25Z</time>
      </trkpt>
      <trkpt lat="45.99443" lon="6.83274">
        <ele>1847</ele>
        <time>2022-07-20T15:02:32Z</time>
      </trkpt>
      <trkpt lat="45.99435" lon="6.83263">
        <ele>1847</ele>
        <time>2022-07-20T15:02:46Z</time>
      </trkpt>
      <trkpt lat="45.99422" lon="6.83243">
        <ele>1848</ele>
        <time>2022-07-20T15:03:07Z</time>
      </trkpt>
      <trkpt lat="45.99416" lon="6.83237">
        <ele>1848</ele>
        <time>2022-07-20T15:03:15Z</time>
      </trkpt>
      <trkpt lat="45.99412" lon="6.83233">
        <ele>1847</ele>
        <time>2022-07-20T15:03:19Z</time>
      </trkpt>
      <trkpt lat="45.99402" lon="6.83219">
        <ele>1846</ele>
        <time>2022-07-20T15:03:33Z</time>
      </trkpt>
      <trkpt lat="45.99394" lon="6.83211">
        <ele>1846</ele>
        <time>2022-07-20T15:03:41Z</time>
      </trkpt>
      <trkpt lat="45.99389" lon="6.83209">
        <ele>1846</ele>
        <time>2022-07-20T15:03:48Z</time>
      </trkpt>
      <trkpt lat="45.99384" lon="6.83205">
        <ele>1846</ele>
        <time>2022-07-20T15:04:24Z</time>
      </trkpt>
      <trkpt lat="45.99383" lon="6.83196">
        <ele>1848</ele>
        <time>2022-07-20T15:04:37Z</time>
      </trkpt>
      <trkpt lat="45.99375" lon="6.83187">
        <ele>1849</ele>
        <time>2022-07-20T15:04:50Z</time>
      </trkpt>
      <trkpt lat="45.99372" lon="6.83182">
        <ele>1849</ele>
        <time>2022-07-20T15:04:54Z</time>
      </trkpt>
      <trkpt lat="45.99368" lon="6.83177">
        <ele>1850</ele>
        <time>2022-07-20T15:05:02Z</time>
      </trkpt>
      <trkpt lat="45.99362" lon="6.8317">
        <ele>1850</ele>
        <time>2022-07-20T15:05:14Z</time>
      </trkpt>
      <trkpt lat="45.99358" lon="6.83166">
        <ele>1851</ele>
        <time>2022-07-20T15:05:19Z</time>
      </trkpt>
      <trkpt lat="45.99354" lon="6.83163">
        <ele>1851</ele>
        <time>2022-07-20T15:05:24Z</time>
      </trkpt>
      <trkpt lat="45.99345" lon="6.8316">
        <ele>1851</ele>
        <time>2022-07-20T15:05:35Z</time>
      </trkpt>
      <trkpt lat="45.99341" lon="6.83159">
        <ele>1850</ele>
        <time>2022-07-20T15:05:40Z</time>
      </trkpt>
      <trkpt lat="45.9933" lon="6.83153">
        <ele>1850</ele>
        <time>2022-07-20T15:05:52Z</time>
      </trkpt>
      <trkpt lat="45.99326" lon="6.83152">
        <ele>1850</ele>
        <time>2022-07-20T15:05:56Z</time>
      </trkpt>
      <trkpt lat="45.99322" lon="6.83148">
        <ele>1851</ele>
        <time>2022-07-20T15:06:00Z</time>
      </trkpt>
      <trkpt lat="45.99313" lon="6.83142">
        <ele>1850</ele>
        <time>2022-07-20T15:06:09Z</time>
      </trkpt>
      <trkpt lat="45.99308" lon="6.83138">
        <ele>1851</ele>
        <time>2022-07-20T15:06:17Z</time>
      </trkpt>
      <trkpt lat="45.99307" lon="6.83131">
        <ele>1852</ele>
        <time>2022-07-20T15:06:28Z</time>
      </trkpt>
      <trkpt lat="45.99303" lon="6.83125">
        <ele>1853</ele>
        <time>2022-07-20T15:06:34Z</time>
      </trkpt>
      <trkpt lat="45.993" lon="6.83119">
        <ele>1852</ele>
        <time>2022-07-20T15:06:40Z</time>
      </trkpt>
      <trkpt lat="45.99293" lon="6.83116">
        <ele>1851</ele>
        <time>2022-07-20T15:06:47Z</time>
      </trkpt>
      <trkpt lat="45.99288" lon="6.83114">
        <ele>1852</ele>
        <time>2022-07-20T15:06:56Z</time>
      </trkpt>
      <trkpt lat="45.99283" lon="6.83112">
        <ele>1852</ele>
        <time>2022-07-20T15:07:01Z</time>
      </trkpt>
      <trkpt lat="45.99278" lon="6.83113">
        <ele>1852</ele>
        <time>2022-07-20T15:07:05Z</time>
      </trkpt>
      <trkpt lat="45.99272" lon="6.8311">
        <ele>1854</ele>
        <time>2022-07-20T15:07:17Z</time>
      </trkpt>
      <trkpt lat="45.99248" lon="6.83117">
        <ele>1850</ele>
        <time>2022-07-20T15:07:43Z</time>
      </trkpt>
      <trkpt lat="45.99242" lon="6.83114">
        <ele>1850</ele>
        <time>2022-07-20T15:07:49Z</time>
      </trkpt>
      <trkpt lat="45.99221" lon="6.83117">
        <ele>1847</ele>
        <time>2022-07-20T15:08:09Z</time>
      </trkpt>
      <trkpt lat="45.9921" lon="6.83112">
        <ele>1847</ele>
        <time>2022-07-20T15:08:21Z</time>
      </trkpt>
      <trkpt lat="45.99207" lon="6.83107">
        <ele>1847</ele>
        <time>2022-07-20T15:08:26Z</time>
      </trkpt>
      <trkpt lat="45.99203" lon="6.83108">
        <ele>1848</ele>
        <time>2022-07-20T15:09:49Z</time>
      </trkpt>
      <trkpt lat="45.99206" lon="6.83109">
        <ele>1851</ele>
        <time>2022-07-20T15:15:42Z</time>
      </trkpt>
      <trkpt lat="45.99217" lon="6.83118">
        <ele>1851</ele>
        <time>2022-07-20T15:16:06Z</time>
      </trkpt>
      <trkpt lat="45.99223" lon="6.83119">
        <ele>1851</ele>
        <time>2022-07-20T15:16:43Z</time>
      </trkpt>
      <trkpt lat="45.99223" lon="6.83119">
        <ele>1874</ele>
        <time>2022-07-20T15:55:17Z</time>
      </trkpt>
      <trkpt lat="45.99217" lon="6.83117">
        <ele>1883</ele>
        <time>2022-07-20T16:10:01Z</time>
      </trkpt>
      <trkpt lat="45.99211" lon="6.83113">
        <ele>1883</ele>
        <time>2022-07-20T16:10:11Z</time>
      </trkpt>
      <trkpt lat="45.99214" lon="6.83116">
        <ele>1883</ele>
        <time>2022-07-20T16:10:37Z</time>
      </trkpt>
      <trkpt lat="45.99218" lon="6.83119">
        <ele>1883</ele>
        <time>2022-07-20T16:10:39Z</time>
      </trkpt>
      <trkpt lat="45.99223" lon="6.83119">
        <ele>1883</ele>
        <time>2022-07-20T16:10:44Z</time>
      </trkpt>
      <trkpt lat="45.99218" lon="6.83118">
        <ele>1883</ele>
        <time>2022-07-20T16:12:10Z</time>
      </trkpt>
      <trkpt lat="45.99206" lon="6.83108">
        <ele>1884</ele>
        <time>2022-07-20T16:12:33Z</time>
      </trkpt>
      <trkpt lat="45.99203" lon="6.83112">
        <ele>1885</ele>
        <time>2022-07-20T16:13:24Z</time>
      </trkpt>
      <trkpt lat="45.99206" lon="6.83111">
        <ele>1887</ele>
        <time>2022-07-20T16:19:54Z</time>
      </trkpt>
      <trkpt lat="45.99211" lon="6.83114">
        <ele>1884</ele>
        <time>2022-07-20T16:20:09Z</time>
      </trkpt>
      <trkpt lat="45.99207" lon="6.83119">
        <ele>1887</ele>
        <time>2022-07-20T16:33:10Z</time>
      </trkpt>
      <trkpt lat="45.99203" lon="6.83117">
        <ele>1886</ele>
        <time>2022-07-20T16:40:07Z</time>
      </trkpt>
      <trkpt lat="45.99204" lon="6.83109">
        <ele>1886</ele>
        <time>2022-07-20T16:40:37Z</time>
      </trkpt>
      <trkpt lat="45.99199" lon="6.83112">
        <ele>1886</ele>
        <time>2022-07-20T16:53:13Z</time>
      </trkpt>
      <trkpt lat="45.99196" lon="6.83105">
        <ele>1888</ele>
        <time>2022-07-20T16:57:55Z</time>
      </trkpt>
      <trkpt lat="45.99197" lon="6.83098">
        <ele>1888</ele>
        <time>2022-07-20T16:58:00Z</time>
      </trkpt>
      <trkpt lat="45.99198" lon="6.83101">
        <ele>1888</ele>
        <time>2022-07-20T17:02:36Z</time>
      </trkpt>
      <trkpt lat="45.99198" lon="6.83104">
        <ele>1888</ele>
        <time>2022-07-20T17:03:29Z</time>
      </trkpt>
      <trkpt lat="45.99203" lon="6.83115">
        <ele>1889</ele>
        <time>2022-07-20T17:03:39Z</time>
      </trkpt>
      <trkpt lat="45.99202" lon="6.83111">
        <ele>1888</ele>
        <time>2022-07-20T17:04:13Z</time>
      </trkpt>
      <trkpt lat="45.99198" lon="6.83101">
        <ele>1888</ele>
        <time>2022-07-20T17:04:21Z</time>
      </trkpt>
      <trkpt lat="45.99199" lon="6.83105">
        <ele>1889</ele>
        <time>2022-07-20T17:05:51Z</time>
      </trkpt>
      <trkpt lat="45.99203" lon="6.83114">
        <ele>1890</ele>
        <time>2022-07-20T17:06:01Z</time>
      </trkpt>
      <trkpt lat="45.99202" lon="6.83113">
        <ele>1884</ele>
        <time>2022-07-20T17:15:05Z</time>
      </trkpt>
      <trkpt lat="45.99204" lon="6.83106">
        <ele>1884</ele>
        <time>2022-07-20T17:15:25Z</time>
      </trkpt>
      <trkpt lat="45.99198" lon="6.83104">
        <ele>1886</ele>
        <time>2022-07-20T17:20:49Z</time>
      </trkpt>
      <trkpt lat="45.992" lon="6.83108">
        <ele>1886</ele>
        <time>2022-07-20T17:45:54Z</time>
      </trkpt>
      <trkpt lat="45.99203" lon="6.83112">
        <ele>1885</ele>
        <time>2022-07-20T17:45:58Z</time>
      </trkpt>
      <trkpt lat="45.99207" lon="6.83114">
        <ele>1886</ele>
        <time>2022-07-20T17:46:31Z</time>
      </trkpt>
      <trkpt lat="45.99205" lon="6.83106">
        <ele>1886</ele>
        <time>2022-07-20T17:58:11Z</time>
      </trkpt>
      <trkpt lat="45.99202" lon="6.83101">
        <ele>1887</ele>
        <time>2022-07-20T17:58:41Z</time>
      </trkpt>
      <trkpt lat="45.992" lon="6.83106">
        <ele>1886</ele>
        <time>2022-07-20T18:03:27Z</time>
      </trkpt>
      <trkpt lat="45.99204" lon="6.83109">
        <ele>1886</ele>
        <time>2022-07-20T18:05:09Z</time>
      </trkpt>
      <trkpt lat="45.99214" lon="6.83115">
        <ele>1886</ele>
        <time>2022-07-20T18:05:22Z</time>
      </trkpt>
      <trkpt lat="45.99218" lon="6.83118">
        <ele>1886</ele>
        <time>2022-07-20T18:05:26Z</time>
      </trkpt>
      <trkpt lat="45.99222" lon="6.83118">
        <ele>1886</ele>
        <time>2022-07-20T18:05:31Z</time>
      </trkpt>
      <trkpt lat="45.99229" lon="6.83117">
        <ele>1886</ele>
        <time>2022-07-20T18:05:37Z</time>
      </trkpt>
      <trkpt lat="45.99233" lon="6.83115">
        <ele>1886</ele>
        <time>2022-07-20T18:05:41Z</time>
      </trkpt>
      <trkpt lat="45.99237" lon="6.83112">
        <ele>1887</ele>
        <time>2022-07-20T18:05:49Z</time>
      </trkpt>
      <trkpt lat="45.99252" lon="6.83115">
        <ele>1889</ele>
        <time>2022-07-20T18:06:11Z</time>
      </trkpt>
      <trkpt lat="45.99257" lon="6.83113">
        <ele>1889</ele>
        <time>2022-07-20T18:06:22Z</time>
      </trkpt>
      <trkpt lat="45.99264" lon="6.83111">
        <ele>1890</ele>
        <time>2022-07-20T18:06:32Z</time>
      </trkpt>
      <trkpt lat="45.99277" lon="6.83106">
        <ele>1892</ele>
        <time>2022-07-20T18:06:49Z</time>
      </trkpt>
      <trkpt lat="45.99287" lon="6.83106">
        <ele>1892</ele>
        <time>2022-07-20T18:06:57Z</time>
      </trkpt>
      <trkpt lat="45.9929" lon="6.83105">
        <ele>1893</ele>
        <time>2022-07-20T18:07:02Z</time>
      </trkpt>
      <trkpt lat="45.99295" lon="6.83105">
        <ele>1893</ele>
        <time>2022-07-20T18:07:07Z</time>
      </trkpt>
      <trkpt lat="45.99301" lon="6.83104">
        <ele>1894</ele>
        <time>2022-07-20T18:07:13Z</time>
      </trkpt>
      <trkpt lat="45.99315" lon="6.8311">
        <ele>1896</ele>
        <time>2022-07-20T18:07:32Z</time>
      </trkpt>
      <trkpt lat="45.99321" lon="6.83113">
        <ele>1897</ele>
        <time>2022-07-20T18:07:43Z</time>
      </trkpt>
      <trkpt lat="45.99328" lon="6.83113">
        <ele>1899</ele>
        <time>2022-07-20T18:07:54Z</time>
      </trkpt>
      <trkpt lat="45.99332" lon="6.83117">
        <ele>1900</ele>
        <time>2022-07-20T18:08:04Z</time>
      </trkpt>
      <trkpt lat="45.99337" lon="6.83114">
        <ele>1901</ele>
        <time>2022-07-20T18:08:10Z</time>
      </trkpt>
      <trkpt lat="45.99343" lon="6.83113">
        <ele>1902</ele>
        <time>2022-07-20T18:08:17Z</time>
      </trkpt>
      <trkpt lat="45.99347" lon="6.8311">
        <ele>1902</ele>
        <time>2022-07-20T18:08:21Z</time>
      </trkpt>
      <trkpt lat="45.99358" lon="6.83106">
        <ele>1903</ele>
        <time>2022-07-20T18:08:33Z</time>
      </trkpt>
      <trkpt lat="45.99363" lon="6.83107">
        <ele>1903</ele>
        <time>2022-07-20T18:08:37Z</time>
      </trkpt>
      <trkpt lat="45.99375" lon="6.83109">
        <ele>1904</ele>
        <time>2022-07-20T18:08:52Z</time>
      </trkpt>
      <trkpt lat="45.99384" lon="6.83107">
        <ele>1905</ele>
        <time>2022-07-20T18:09:01Z</time>
      </trkpt>
      <trkpt lat="45.99388" lon="6.8311">
        <ele>1906</ele>
        <time>2022-07-20T18:09:07Z</time>
      </trkpt>
      <trkpt lat="45.99399" lon="6.8311">
        <ele>1907</ele>
        <time>2022-07-20T18:09:18Z</time>
      </trkpt>
      <trkpt lat="45.99403" lon="6.83114">
        <ele>1907</ele>
        <time>2022-07-20T18:09:23Z</time>
      </trkpt>
      <trkpt lat="45.99408" lon="6.83115">
        <ele>1907</ele>
        <time>2022-07-20T18:09:27Z</time>
      </trkpt>
      <trkpt lat="45.99424" lon="6.83118">
        <ele>1910</ele>
        <time>2022-07-20T18:09:46Z</time>
      </trkpt>
      <trkpt lat="45.99429" lon="6.83122">
        <ele>1910</ele>
        <time>2022-07-20T18:09:53Z</time>
      </trkpt>
      <trkpt lat="45.99442" lon="6.83126">
        <ele>1913</ele>
        <time>2022-07-20T18:10:10Z</time>
      </trkpt>
      <trkpt lat="45.99446" lon="6.8313">
        <ele>1913</ele>
        <time>2022-07-20T18:10:14Z</time>
      </trkpt>
      <trkpt lat="45.99456" lon="6.83134">
        <ele>1915</ele>
        <time>2022-07-20T18:10:29Z</time>
      </trkpt>
      <trkpt lat="45.99462" lon="6.83132">
        <ele>1916</ele>
        <time>2022-07-20T18:10:36Z</time>
      </trkpt>
      <trkpt lat="45.99467" lon="6.83135">
        <ele>1918</ele>
        <time>2022-07-20T18:10:45Z</time>
      </trkpt>
      <trkpt lat="45.99472" lon="6.83139">
        <ele>1919</ele>
        <time>2022-07-20T18:10:56Z</time>
      </trkpt>
      <trkpt lat="45.99477" lon="6.8314">
        <ele>1919</ele>
        <time>2022-07-20T18:11:01Z</time>
      </trkpt>
      <trkpt lat="45.99485" lon="6.8314">
        <ele>1920</ele>
        <time>2022-07-20T18:11:10Z</time>
      </trkpt>
      <trkpt lat="45.9949" lon="6.8314">
        <ele>1921</ele>
        <time>2022-07-20T18:11:16Z</time>
      </trkpt>
      <trkpt lat="45.99494" lon="6.83144">
        <ele>1922</ele>
        <time>2022-07-20T18:11:21Z</time>
      </trkpt>
      <trkpt lat="45.99499" lon="6.83146">
        <ele>1922</ele>
        <time>2022-07-20T18:11:26Z</time>
      </trkpt>
      <trkpt lat="45.99506" lon="6.83149">
        <ele>1924</ele>
        <time>2022-07-20T18:11:38Z</time>
      </trkpt>
      <trkpt lat="45.99511" lon="6.83154">
        <ele>1925</ele>
        <time>2022-07-20T18:11:48Z</time>
      </trkpt>
      <trkpt lat="45.99515" lon="6.83153">
        <ele>1925</ele>
        <time>2022-07-20T18:11:53Z</time>
      </trkpt>
      <trkpt lat="45.99533" lon="6.83154">
        <ele>1930</ele>
        <time>2022-07-20T18:12:28Z</time>
      </trkpt>
      <trkpt lat="45.99539" lon="6.83156">
        <ele>1931</ele>
        <time>2022-07-20T18:12:39Z</time>
      </trkpt>
      <trkpt lat="45.99543" lon="6.83156">
        <ele>1932</ele>
        <time>2022-07-20T18:12:45Z</time>
      </trkpt>
      <trkpt lat="45.99554" lon="6.83155">
        <ele>1934</ele>
        <time>2022-07-20T18:13:01Z</time>
      </trkpt>
      <trkpt lat="45.99558" lon="6.83149">
        <ele>1935</ele>
        <time>2022-07-20T18:13:11Z</time>
      </trkpt>
      <trkpt lat="45.99564" lon="6.83148">
        <ele>1936</ele>
        <time>2022-07-20T18:13:21Z</time>
      </trkpt>
      <trkpt lat="45.99568" lon="6.83145">
        <ele>1937</ele>
        <time>2022-07-20T18:13:27Z</time>
      </trkpt>
      <trkpt lat="45.99573" lon="6.83149">
        <ele>1937</ele>
        <time>2022-07-20T18:13:35Z</time>
      </trkpt>
      <trkpt lat="45.99579" lon="6.83151">
        <ele>1937</ele>
        <time>2022-07-20T18:13:45Z</time>
      </trkpt>
      <trkpt lat="45.99583" lon="6.8316">
        <ele>1938</ele>
        <time>2022-07-20T18:13:55Z</time>
      </trkpt>
      <trkpt lat="45.99608" lon="6.83172">
        <ele>1941</ele>
        <time>2022-07-20T18:14:27Z</time>
      </trkpt>
      <trkpt lat="45.99619" lon="6.83175">
        <ele>1943</ele>
        <time>2022-07-20T18:14:40Z</time>
      </trkpt>
      <trkpt lat="45.99623" lon="6.83171">
        <ele>1944</ele>
        <time>2022-07-20T18:14:44Z</time>
      </trkpt>
      <trkpt lat="45.99625" lon="6.83167">
        <ele>1944</ele>
        <time>2022-07-20T18:14:49Z</time>
      </trkpt>
      <trkpt lat="45.99628" lon="6.83173">
        <ele>1944</ele>
        <time>2022-07-20T18:14:54Z</time>
      </trkpt>
      <trkpt lat="45.99636" lon="6.83179">
        <ele>1945</ele>
        <time>2022-07-20T18:15:04Z</time>
      </trkpt>
      <trkpt lat="45.99641" lon="6.83183">
        <ele>1946</ele>
        <time>2022-07-20T18:15:11Z</time>
      </trkpt>
      <trkpt lat="45.99646" lon="6.83186">
        <ele>1948</ele>
        <time>2022-07-20T18:15:22Z</time>
      </trkpt>
      <trkpt lat="45.99653" lon="6.83196">
        <ele>1948</ele>
        <time>2022-07-20T18:15:32Z</time>
      </trkpt>
      <trkpt lat="45.99659" lon="6.83195">
        <ele>1949</ele>
        <time>2022-07-20T18:15:38Z</time>
      </trkpt>
      <trkpt lat="45.99664" lon="6.83194">
        <ele>1949</ele>
        <time>2022-07-20T18:15:42Z</time>
      </trkpt>
      <trkpt lat="45.99668" lon="6.83195">
        <ele>1950</ele>
        <time>2022-07-20T18:15:46Z</time>
      </trkpt>
      <trkpt lat="45.99681" lon="6.83196">
        <ele>1951</ele>
        <time>2022-07-20T18:16:03Z</time>
      </trkpt>
      <trkpt lat="45.99695" lon="6.83193">
        <ele>1955</ele>
        <time>2022-07-20T18:16:24Z</time>
      </trkpt>
      <trkpt lat="45.99699" lon="6.8319">
        <ele>1955</ele>
        <time>2022-07-20T18:16:34Z</time>
      </trkpt>
      <trkpt lat="45.9971" lon="6.83187">
        <ele>1953</ele>
        <time>2022-07-20T18:16:49Z</time>
      </trkpt>
      <trkpt lat="45.99716" lon="6.83185">
        <ele>1953</ele>
        <time>2022-07-20T18:16:57Z</time>
      </trkpt>
      <trkpt lat="45.9972" lon="6.83183">
        <ele>1955</ele>
        <time>2022-07-20T18:17:04Z</time>
      </trkpt>
      <trkpt lat="45.99723" lon="6.83189">
        <ele>1956</ele>
        <time>2022-07-20T18:17:15Z</time>
      </trkpt>
      <trkpt lat="45.9972" lon="6.83198">
        <ele>1958</ele>
        <time>2022-07-20T18:17:30Z</time>
      </trkpt>
      <trkpt lat="45.99719" lon="6.83205">
        <ele>1958</ele>
        <time>2022-07-20T18:17:35Z</time>
      </trkpt>
      <trkpt lat="45.99722" lon="6.8321">
        <ele>1958</ele>
        <time>2022-07-20T18:17:39Z</time>
      </trkpt>
      <trkpt lat="45.99725" lon="6.83216">
        <ele>1958</ele>
        <time>2022-07-20T18:17:43Z</time>
      </trkpt>
      <trkpt lat="45.9974" lon="6.83234">
        <ele>1955</ele>
        <time>2022-07-20T18:18:00Z</time>
      </trkpt>
      <trkpt lat="45.99742" lon="6.83241">
        <ele>1954</ele>
        <time>2022-07-20T18:18:04Z</time>
      </trkpt>
      <trkpt lat="45.99755" lon="6.83252">
        <ele>1953</ele>
        <time>2022-07-20T18:18:17Z</time>
      </trkpt>
      <trkpt lat="45.99771" lon="6.83266">
        <ele>1952</ele>
        <time>2022-07-20T18:18:33Z</time>
      </trkpt>
      <trkpt lat="45.99776" lon="6.83266">
        <ele>1951</ele>
        <time>2022-07-20T18:18:38Z</time>
      </trkpt>
      <trkpt lat="45.9978" lon="6.83272">
        <ele>1950</ele>
        <time>2022-07-20T18:18:44Z</time>
      </trkpt>
      <trkpt lat="45.9978" lon="6.8328">
        <ele>1950</ele>
        <time>2022-07-20T18:18:49Z</time>
      </trkpt>
      <trkpt lat="45.99784" lon="6.83285">
        <ele>1950</ele>
        <time>2022-07-20T18:18:53Z</time>
      </trkpt>
      <trkpt lat="45.99787" lon="6.83298">
        <ele>1949</ele>
        <time>2022-07-20T18:19:01Z</time>
      </trkpt>
      <trkpt lat="45.99803" lon="6.83335">
        <ele>1946</ele>
        <time>2022-07-20T18:19:29Z</time>
      </trkpt>
      <trkpt lat="45.99807" lon="6.8334">
        <ele>1946</ele>
        <time>2022-07-20T18:19:33Z</time>
      </trkpt>
      <trkpt lat="45.9981" lon="6.83344">
        <ele>1946</ele>
        <time>2022-07-20T18:19:37Z</time>
      </trkpt>
      <trkpt lat="45.99813" lon="6.83351">
        <ele>1944</ele>
        <time>2022-07-20T18:19:45Z</time>
      </trkpt>
      <trkpt lat="45.99813" lon="6.83358">
        <ele>1944</ele>
        <time>2022-07-20T18:19:49Z</time>
      </trkpt>
      <trkpt lat="45.99811" lon="6.83365">
        <ele>1944</ele>
        <time>2022-07-20T18:19:55Z</time>
      </trkpt>
      <trkpt lat="45.99806" lon="6.8337">
        <ele>1945</ele>
        <time>2022-07-20T18:20:03Z</time>
      </trkpt>
      <trkpt lat="45.998" lon="6.83374">
        <ele>1945</ele>
        <time>2022-07-20T18:20:13Z</time>
      </trkpt>
      <trkpt lat="45.99796" lon="6.83376">
        <ele>1944</ele>
        <time>2022-07-20T18:20:18Z</time>
      </trkpt>
      <trkpt lat="45.99792" lon="6.83378">
        <ele>1945</ele>
        <time>2022-07-20T18:20:22Z</time>
      </trkpt>
      <trkpt lat="45.99788" lon="6.83379">
        <ele>1945</ele>
        <time>2022-07-20T18:20:26Z</time>
      </trkpt>
      <trkpt lat="45.99783" lon="6.83381">
        <ele>1944</ele>
        <time>2022-07-20T18:20:30Z</time>
      </trkpt>
      <trkpt lat="45.99779" lon="6.83385">
        <ele>1944</ele>
        <time>2022-07-20T18:20:35Z</time>
      </trkpt>
      <trkpt lat="45.99774" lon="6.83385">
        <ele>1944</ele>
        <time>2022-07-20T18:20:39Z</time>
      </trkpt>
      <trkpt lat="45.99758" lon="6.83386">
        <ele>1944</ele>
        <time>2022-07-20T18:20:56Z</time>
      </trkpt>
      <trkpt lat="45.99742" lon="6.83391">
        <ele>1944</ele>
        <time>2022-07-20T18:21:19Z</time>
      </trkpt>
      <trkpt lat="45.99714" lon="6.83404">
        <ele>1941</ele>
        <time>2022-07-20T18:21:51Z</time>
      </trkpt>
      <trkpt lat="45.99697" lon="6.83421">
        <ele>1939</ele>
        <time>2022-07-20T18:23:01Z</time>
      </trkpt>
      <trkpt lat="45.99699" lon="6.83421">
        <ele>1936</ele>
        <time>2022-07-20T18:26:36Z</time>
      </trkpt>
      <trkpt lat="45.99698" lon="6.83422">
        <ele>1936</ele>
        <time>2022-07-20T18:27:38Z</time>
      </trkpt>
      <trkpt lat="45.99696" lon="6.83427">
        <ele>1936</ele>
        <time>2022-07-20T18:27:44Z</time>
      </trkpt>
      <trkpt lat="45.99699" lon="6.8343">
        <ele>1938</ele>
        <time>2022-07-20T19:02:48Z</time>
      </trkpt>
      <trkpt lat="45.99699" lon="6.83431">
        <ele>1939</ele>
        <time>2022-07-20T19:18:04Z</time>
      </trkpt>
      <trkpt lat="45.99698" lon="6.83428">
        <ele>1939</ele>
        <time>2022-07-20T19:26:34Z</time>
      </trkpt>
      <trkpt lat="45.997" lon="6.83423">
        <ele>1939</ele>
        <time>2022-07-20T19:26:38Z</time>
      </trkpt>
      <trkpt lat="45.997" lon="6.83414">
        <ele>1939</ele>
        <time>2022-07-20T19:26:47Z</time>
      </trkpt>
      <trkpt lat="45.99699" lon="6.83408">
        <ele>1940</ele>
        <time>2022-07-20T19:26:50Z</time>
      </trkpt>
      <trkpt lat="45.99697" lon="6.83404">
        <ele>1940</ele>
        <time>2022-07-20T19:26:54Z</time>
      </trkpt>
      <trkpt lat="45.99687" lon="6.83395">
        <ele>1940</ele>
        <time>2022-07-20T19:27:05Z</time>
      </trkpt>
      <trkpt lat="45.99686" lon="6.83389">
        <ele>1940</ele>
        <time>2022-07-20T19:27:09Z</time>
      </trkpt>
      <trkpt lat="45.99686" lon="6.83382">
        <ele>1941</ele>
        <time>2022-07-20T19:27:13Z</time>
      </trkpt>
      <trkpt lat="45.99681" lon="6.83393">
        <ele>1940</ele>
        <time>2022-07-20T19:27:57Z</time>
      </trkpt>
      <trkpt lat="45.99685" lon="6.83398">
        <ele>1940</ele>
        <time>2022-07-20T19:27:59Z</time>
      </trkpt>
      <trkpt lat="45.9969" lon="6.834">
        <ele>1941</ele>
        <time>2022-07-20T19:28:01Z</time>
      </trkpt>
      <trkpt lat="45.99693" lon="6.8341">
        <ele>1940</ele>
        <time>2022-07-20T19:28:06Z</time>
      </trkpt>
      <trkpt lat="45.99696" lon="6.83416">
        <ele>1941</ele>
        <time>2022-07-20T19:28:10Z</time>
      </trkpt>
      <trkpt lat="45.99697" lon="6.83422">
        <ele>1940</ele>
        <time>2022-07-20T19:28:14Z</time>
      </trkpt>
      <trkpt lat="45.99696" lon="6.83431">
        <ele>1940</ele>
        <time>2022-07-20T19:28:20Z</time>
      </trkpt>
      <trkpt lat="45.99698" lon="6.8343">
        <ele>1939</ele>
        <time>2022-07-20T19:36:42Z</time>
      </trkpt>
      <trkpt lat="45.99701" lon="6.83424">
        <ele>1939</ele>
        <time>2022-07-20T19:36:46Z</time>
      </trkpt>
      <trkpt lat="45.99697" lon="6.83421">
        <ele>1942</ele>
        <time>2022-07-21T04:30:16Z</time>
      </trkpt>
      <trkpt lat="45.99698" lon="6.83421">
        <ele>1942</ele>
        <time>2022-07-21T04:30:17Z</time>
      </trkpt>
    </trkseg>
  </trk>
  <rte>
    <name><![CDATA[4 avr. 2019 à 23:11:12]]></name>
    <cmt><![CDATA[4 avr. 2019 à 23:11:12]]></cmt>
    <desc><![CDATA[{DC1}Heure de fin	: 
Durée totale	: 0h00:00
Moyenne globale	: -
Pente moyenne	: 0.00 %
Aire incluse	: 7.4932 ha
Détails par segments
distance  | durée    | vit.moy. | vit.max. | déniv. + | déniv -
   km     | hh:mn:ss |   km/h   |   km/h   |    m     |    m
     0.81 | 00:00:00 |      0.0 |      0.0 |        0 |        0{DC2}]]></desc>
      <rtept lat="45.60077" lon="6.18221">
        <ele>1608.6</ele>
      </rtept>
      <rtept lat="45.59468" lon="6.1822">
        <ele>1760.9</ele>
      </rtept>
      <rtept lat="45.59468" lon="6.1822">
        <ele>1760.9</ele>
      </rtept>
    </rte>
  <rte>
    <name><![CDATA[10 févr. 2019 à 15:16:12]]></name>
    <cmt><![CDATA[10 févr. 2019 à 15:16:12]]></cmt>
    <desc><![CDATA[{DC1}Heure de fin	: 00:09:21
Durée totale	: -17690439h43:48
Moyenne globale	: -
Pente moyenne	: 7.00 %
Aire incluse	: 221.0936 ha
Détails par segments
distance  | durée    | vit.moy. | vit.max. | déniv. + | déniv -
   km     | hh:mn:ss |   km/h   |   km/h   |    m     |    m
     7.48 | 00:00:00 |      0.0 |      0.0 |        0 |        0{DC2}]]></desc>
      <rtept lat="45.55203" lon="5.93805">
        <ele>376</ele>
      </rtept>
      <rtept lat="45.55177" lon="5.93873">
        <ele>369</ele>
      </rtept>
      <rtept lat="45.55176" lon="5.93942">
        <ele>367</ele>
      </rtept>
      <rtept lat="45.55105" lon="5.93942">
        <ele>367</ele>
      </rtept>
      <rtept lat="45.54993" lon="5.93908">
        <ele>371</ele>
      </rtept>
      <rtept lat="45.54929" lon="5.94099">
        <ele>370</ele>
      </rtept>
      <rtept lat="45.54908" lon="5.94204">
        <ele>367</ele>
      </rtept>
      <rtept lat="45.54991" lon="5.94287">
        <ele>365</ele>
      </rtept>
      <rtept lat="45.5506" lon="5.94384">
        <ele>361</ele>
      </rtept>
      <rtept lat="45.55147" lon="5.94384">
        <ele>357</ele>
      </rtept>
      <rtept lat="45.55129" lon="5.94607">
        <ele>358</ele>
      </rtept>
      <rtept lat="45.55029" lon="5.94809">
        <ele>355</ele>
      </rtept>
      <rtept lat="45.54884" lon="5.94886">
        <ele>346</ele>
      </rtept>
      <rtept lat="45.5477" lon="5.94931">
        <ele>342</ele>
      </rtept>
      <rtept lat="45.5468" lon="5.95004">
        <ele>339</ele>
      </rtept>
      <rtept lat="45.54596" lon="5.95133">
        <ele>340</ele>
      </rtept>
      <rtept lat="45.54446" lon="5.95195">
        <ele>343</ele>
      </rtept>
      <rtept lat="45.543" lon="5.95262">
        <ele>344</ele>
      </rtept>
      <rtept lat="45.54156" lon="5.95212">
        <ele>337</ele>
      </rtept>
      <rtept lat="45.54041" lon="5.95204">
        <ele>338</ele>
      </rtept>
      <rtept lat="45.53917" lon="5.95141">
        <ele>343</ele>
      </rtept>
      <rtept lat="45.53844" lon="5.95135">
        <ele>347</ele>
      </rtept>
      <rtept lat="45.53765" lon="5.9503">
        <ele>349</ele>
      </rtept>
      <rtept lat="45.5381" lon="5.94993">
        <ele>352</ele>
      </rtept>
      <rtept lat="45.53781" lon="5.94901">
        <ele>358</ele>
      </rtept>
      <rtept lat="45.53711" lon="5.94845">
        <ele>365</ele>
      </rtept>
      <rtept lat="45.53702" lon="5.94764">
        <ele>369</ele>
      </rtept>
      <rtept lat="45.53817" lon="5.94807">
        <ele>376</ele>
      </rtept>
      <rtept lat="45.53865" lon="5.94633">
        <ele>389</ele>
      </rtept>
      <rtept lat="45.53778" lon="5.94491">
        <ele>408</ele>
      </rtept>
      <rtept lat="45.53757" lon="5.94371">
        <ele>425</ele>
      </rtept>
      <rtept lat="45.53775" lon="5.94279">
        <ele>434</ele>
      </rtept>
      <rtept lat="45.53726" lon="5.94227">
        <ele>442</ele>
      </rtept>
      <rtept lat="45.53572" lon="5.94146">
        <ele>468</ele>
      </rtept>
      <rtept lat="45.53664" lon="5.94039">
        <ele>483</ele>
      </rtept>
      <rtept lat="45.53532" lon="5.93983">
        <ele>505</ele>
      </rtept>
      <rtept lat="45.53416" lon="5.93985">
        <ele>516</ele>
      </rtept>
      <rtept lat="45.5355" lon="5.93869">
        <ele>532</ele>
      </rtept>
      <rtept lat="45.5359" lon="5.93845">
        <ele>537</ele>
      </rtept>
      <rtept lat="45.5355" lon="5.93802">
        <ele>544</ele>
      </rtept>
      <rtept lat="45.53724" lon="5.93554">
        <ele>587</ele>
      </rtept>
      <rtept lat="45.53691" lon="5.93339">
        <ele>592</ele>
      </rtept>
      <rtept lat="45.5376" lon="5.93178">
        <ele>575</ele>
      </rtept>
      <rtept lat="45.53843" lon="5.93069">
        <ele>555</ele>
      </rtept>
      <rtept lat="45.53939" lon="5.93157">
        <ele>541</ele>
      </rtept>
      <rtept lat="45.54068" lon="5.93234">
        <ele>522</ele>
      </rtept>
      <rtept lat="45.54219" lon="5.93247">
        <ele>514</ele>
      </rtept>
      <rtept lat="45.54355" lon="5.93232">
        <ele>512</ele>
      </rtept>
      <rtept lat="45.54489" lon="5.9326">
        <ele>508</ele>
      </rtept>
      <rtept lat="45.54636" lon="5.93249">
        <ele>510</ele>
      </rtept>
      <rtept lat="45.54758" lon="5.93249">
        <ele>510</ele>
      </rtept>
      <rtept lat="45.54818" lon="5.93298">
        <ele>507</ele>
      </rtept>
      <rtept lat="45.54796" lon="5.93418">
        <ele>496</ele>
      </rtept>
      <rtept lat="45.5491" lon="5.93433">
        <ele>483</ele>
      </rtept>
      <rtept lat="45.55126" lon="5.9341">
        <ele>463</ele>
      </rtept>
      <rtept lat="45.55256" lon="5.93453">
        <ele>444</ele>
      </rtept>
      <rtept lat="45.55329" lon="5.93558">
        <ele>430</ele>
      </rtept>
      <rtept lat="45.55222" lon="5.93642">
        <ele>415</ele>
      </rtept>
      <rtept lat="45.55195" lon="5.93811">
        <ele>375</ele>
      </rtept>
    </rte>
  <rte>
    <name><![CDATA[10 févr. 2019 à 15:15:48]]></name>
    <cmt><![CDATA[10 févr. 2019 à 15:15:48]]></cmt>
    <desc><![CDATA[{DC1}Heure de fin	: 00:09:21
Durée totale	: -17690439h44:12
Moyenne globale	: -
Pente moyenne	: nan %
Aire incluse	: 0.0000 ha
Détails par segments
distance  | durée    | vit.moy. | vit.max. | déniv. + | déniv -
   km     | hh:mn:ss |   km/h   |   km/h   |    m     |    m
     0.00 | 00:00:00 |      0.0 |      0.0 |        0 |        0{DC2}]]></desc>
      <rtept lat="45.5175" lon="5.93483">
        <ele>732.3</ele>
      </rtept>
    </rte>
  <rte>
    <name><![CDATA[10 févr. 2019 à 15:06:08]]></name>
    <cmt><![CDATA[10 févr. 2019 à 15:06:08]]></cmt>
    <desc><![CDATA[{DC1}Heure de fin	: 
Durée totale	: 0h00:00
Moyenne globale	: -
Pente moyenne	: 8.03 %
Aire incluse	: 204.0794 ha
Détails par segments
distance  | durée    | vit.moy. | vit.max. | déniv. + | déniv -
   km     | hh:mn:ss |   km/h   |   km/h   |    m     |    m
    12.88 | 00:00:00 |      0.0 |      0.0 |        0 |        0{DC2}]]></desc>
      <rtept lat="45.5509" lon="5.9394">
        <ele>368</ele>
      </rtept>
      <rtept lat="45.55217" lon="5.93791">
        <ele>377</ele>
      </rtept>
    </rte>
  <rte>
    <name><![CDATA[10 févr. 2019 à 14:22:06]]></name>
    <cmt><![CDATA[10 févr. 2019 à 14:22:06]]></cmt>
    <desc><![CDATA[{DC1}Heure de fin	: 00:09:21
Durée totale	: -17690438h37:54
Moyenne globale	: -
Pente moyenne	: 5.62 %
Aire incluse	: 5.7967 ha
Détails par segments
distance  | durée    | vit.moy. | vit.max. | déniv. + | déniv -
   km     | hh:mn:ss |   km/h   |   km/h   |    m     |    m
     3.30 | 00:00:00 |      0.0 |      0.0 |        0 |        0{DC2}]]></desc>
      <rtept lat="45.55169" lon="5.93089">
        <ele>415</ele>
      </rtept>
      <rtept lat="45.5518" lon="5.93905">
        <ele>366</ele>
      </rtept>
    </rte>
  <rte>
    <name><![CDATA[10 févr. 2019 à 09:50:45]]></name>
    <cmt><![CDATA[10 févr. 2019 à 09:50:45]]></cmt>
    <desc><![CDATA[{DC1}Heure de fin	: 00:09:21
Durée totale	: -17690433h09:14
Moyenne globale	: -
Pente moyenne	: 0.00 %
Aire incluse	: 50.7119 ha
Détails par segments
distance  | durée    | vit.moy. | vit.max. | déniv. + | déniv -
   km     | hh:mn:ss |   km/h   |   km/h   |    m     |    m
     4.33 | 00:00:00 |      0.0 |      0.0 |        0 |        0{DC2}]]></desc>
      <rtept lat="45.5503" lon="5.93918">
        <ele>373.6</ele>
      </rtept>
      <rtept lat="45.55191" lon="5.93893">
        <ele>366.7</ele>
      </rtept>
    </rte>
  <rte>
    <name><![CDATA[10 févr. 2019 à 09:07:08]]></name>
    <cmt><![CDATA[10 févr. 2019 à 09:07:08]]></cmt>
    <desc><![CDATA[{DC1}Heure de fin	: 00:09:21
Durée totale	: -17690433h52:52
Moyenne globale	: -
Pente moyenne	: nan %
Aire incluse	: 0.0000 ha
Détails par segments
distance  | durée    | vit.moy. | vit.max. | déniv. + | déniv -
   km     | hh:mn:ss |   km/h   |   km/h   |    m     |    m
     0.00 | 00:00:00 |      0.0 |      0.0 |        0 |        0{DC2}]]></desc>
      <rtept lat="45.55102" lon="5.93919">
        <ele>370.1</ele>
      </rtept>
    </rte>
  <rte>
    <name><![CDATA[10 févr. 2019 à 09:02:25]]></name>
    <cmt><![CDATA[10 févr. 2019 à 09:02:25]]></cmt>
    <desc><![CDATA[{DC1}Heure de fin	: 00:09:21
Durée totale	: -17690433h57:35
Moyenne globale	: -
Pente moyenne	: nan %
Aire incluse	: 0.0000 ha
Détails par segments
distance  | durée    | vit.moy. | vit.max. | déniv. + | déniv -
   km     | hh:mn:ss |   km/h   |   km/h   |    m     |    m
     0.00 | 00:00:00 |      0.0 |      0.0 |        0 |        0{DC2}]]></desc>
      <rtept lat="45.55207" lon="5.93813">
        <ele>375.2</ele>
      </rtept>
    </rte>
  <rte>
    <name><![CDATA[10 févr. 2019 à 09:00:27]]></name>
    <cmt><![CDATA[10 févr. 2019 à 09:00:27]]></cmt>
    <desc><![CDATA[{DC1}Heure de fin	: 00:09:21
Durée totale	: -17690433h59:32
Moyenne globale	: -
Pente moyenne	: nan %
Aire incluse	: 0.0000 ha
Détails par segments
distance  | durée    | vit.moy. | vit.max. | déniv. + | déniv -
   km     | hh:mn:ss |   km/h   |   km/h   |    m     |    m
     0.00 | 00:00:00 |      0.0 |      0.0 |        0 |        0{DC2}]]></desc>
      <rtept lat="45.55244" lon="5.93858">
        <ele>366.6</ele>
      </rtept>
    </rte>
</gpx>